Time;durP1;ratioP1;P1;durP2;ratioP2;P2;SDS_P1;SDS_P2;PMS_P1;PMS_P2;Temp;Humidity;BMP_temperature;BMP_pressure;BME280_temperature;BME280_humidity;BME280_pressure;Samples;Min_cycle;Max_cycle;Signal;HPM_P1;HPM_P2
2022/12/10 00:01:05;;;;;;;16.50;7.28;;;;;;;10.83;100.00;92498.94;5111093;28;20043;-72
2022/12/10 00:03:31;;;;;;;16.00;6.68;;;;;;;10.77;100.00;92505.00;5110837;28;20044;-72
2022/12/10 00:06:00;;;;;;;16.05;7.18;;;;;;;10.77;100.00;92498.09;5110703;28;20051;-72
2022/12/10 00:08:27;;;;;;;16.33;6.47;;;;;;;10.76;100.00;92496.53;5110488;28;20527;-72
2022/12/10 00:10:55;;;;;;;15.88;7.20;;;;;;;10.76;100.00;92493.97;5110185;28;20051;-72
2022/12/10 00:13:22;;;;;;;17.02;7.13;;;;;;;10.71;100.00;92475.09;5110372;28;20077;-72
2022/12/10 00:15:49;;;;;;;13.10;6.38;;;;;;;10.67;100.00;92474.78;5110797;28;20043;-72
2022/12/10 00:18:16;;;;;;;13.90;6.93;;;;;;;10.78;100.00;92486.03;5110770;28;20134;-72
2022/12/10 00:20:43;;;;;;;10.90;6.45;;;;;;;10.73;100.00;92485.94;5110443;28;20449;-72
2022/12/10 00:23:09;;;;;;;25.90;8.13;;;;;;;10.75;100.00;92501.91;5109963;28;20097;-72
2022/12/10 00:25:36;;;;;;;14.52;6.72;;;;;;;10.77;100.00;92492.16;5110349;28;20043;-72
2022/12/10 00:28:04;;;;;;;14.57;6.13;;;;;;;10.81;100.00;92499.19;5110478;28;20044;-72
2022/12/10 00:30:31;;;;;;;14.95;6.45;;;;;;;10.79;100.00;92490.91;5110239;28;20056;-72
2022/12/10 00:32:58;;;;;;;16.30;6.00;;;;;;;10.88;100.00;92491.34;5110017;28;20664;-72
2022/12/10 00:35:24;;;;;;;14.40;7.00;;;;;;;10.89;100.00;92500.63;5110543;28;20048;-72
2022/12/10 00:37:51;;;;;;;16.85;6.28;;;;;;;10.93;100.00;92501.72;5109910;28;20445;-72
2022/12/10 00:40:18;;;;;;;15.55;7.15;;;;;;;10.95;100.00;92501.50;5110225;28;20079;-72
2022/12/10 00:42:45;;;;;;;15.38;7.35;;;;;;;10.92;100.00;92496.81;5110259;28;20078;-72
2022/12/10 00:45:13;;;;;;;12.48;7.07;;;;;;;10.95;100.00;92510.00;5110345;28;20047;-72
2022/12/10 00:47:40;;;;;;;11.77;7.07;;;;;;;10.99;100.00;92506.94;5110180;28;20047;-72
2022/12/10 00:50:07;;;;;;;17.90;6.68;;;;;;;11.03;100.00;92508.06;5110043;28;20047;-72
2022/12/10 00:52:33;;;;;;;15.40;6.90;;;;;;;10.97;100.00;92512.31;5110059;28;20490;-72
2022/12/10 00:55:00;;;;;;;13.32;7.18;;;;;;;11.00;100.00;92518.78;5110222;28;20051;-72
2022/12/10 00:57:27;;;;;;;16.25;7.20;;;;;;;10.90;100.00;92525.31;5110074;28;20556;-72
2022/12/10 00:59:53;;;;;;;15.18;7.30;;;;;;;10.93;100.00;92518.94;5109634;28;20109;-72
2022/12/10 01:05:06;;;;;;;20.33;8.20;;;;;;;10.86;100.00;92518.25;5109881;28;20093;-72
2022/12/10 01:07:32;;;;;;;13.95;7.55;;;;;;;10.82;100.00;92505.09;5109671;28;20044;-72
2022/12/10 01:09:59;;;;;;;17.17;7.72;;;;;;;10.86;100.00;92501.06;5109522;28;20040;-72
2022/12/10 01:12:26;;;;;;;17.80;8.35;;;;;;;10.88;100.00;92504.19;5110163;28;20403;-72
2022/12/10 01:14:52;;;;;;;13.30;7.28;;;;;;;10.82;100.00;92495.63;5110041;28;20105;-73
2022/12/10 01:17:21;;;;;;;15.50;7.75;;;;;;;10.88;100.00;92500.84;5110161;28;20097;-72
2022/12/10 01:19:49;;;;;;;15.93;7.18;;;;;;;10.89;100.00;92495.50;5106274;28;20059;-72
2022/12/10 01:22:16;;;;;;;14.20;8.20;;;;;;;10.93;100.00;92494.00;5098856;28;20468;-73
2022/12/10 01:24:43;;;;;;;16.85;8.30;;;;;;;10.82;100.00;92482.78;5108562;28;20040;-72
2022/12/10 01:27:09;;;;;;;19.65;7.53;;;;;;;10.87;100.00;92494.91;5109449;28;20051;-72
2022/12/10 01:29:36;;;;;;;16.75;7.72;;;;;;;10.88;100.00;92493.16;5109571;28;20404;-72
2022/12/10 01:32:03;;;;;;;14.93;7.60;;;;;;;10.89;100.00;92492.91;5109845;28;20052;-72
2022/12/10 01:34:30;;;;;;;11.40;6.40;;;;;;;10.93;100.00;92493.25;5108977;28;20047;-71
2022/12/10 01:36:58;;;;;;;14.00;6.75;;;;;;;10.93;100.00;92485.53;5109628;28;20419;-72
2022/12/10 01:39:25;;;;;;;13.25;6.13;;;;;;;10.91;100.00;92487.53;5109280;28;20059;-71
2022/12/10 01:41:53;;;;;;;18.15;7.07;;;;;;;10.92;100.00;92486.56;5109462;28;20564;-71
2022/12/10 01:44:57;;;;;;;14.55;6.15;;;;;;;10.85;100.00;92493.59;5109723;28;20048;-71
2022/12/10 01:47:24;;;;;;;18.33;6.68;;;;;;;10.80;100.00;92486.56;5109640;28;20055;-72
2022/12/10 01:49:51;;;;;;;17.88;6.55;;;;;;;10.68;100.00;92471.19;5109177;28;20568;-72
2022/12/10 01:52:19;;;;;;;14.57;6.63;;;;;;;10.76;100.00;92480.31;5109599;28;20109;-72
2022/12/10 01:54:47;;;;;;;13.88;5.85;;;;;;;10.79;100.00;92477.31;5109484;28;20092;-72
2022/12/10 01:57:16;;;;;;;15.13;6.75;;;;;;;10.76;100.00;92475.97;5109205;28;20286;-71
2022/12/10 01:59:44;;;;;;;15.00;6.55;;;;;;;10.79;100.00;92482.44;5109696;28;20116;-72
2022/12/10 02:02:15;;;;;;;15.57;6.70;;;;;;;10.77;100.00;92480.09;5109725;28;20055;-72
2022/12/10 02:04:51;;;;;;;13.27;5.80;;;;;;;10.77;100.00;92479.31;5109241;28;20035;-72
2022/12/10 02:07:27;;;;;;;13.70;6.93;;;;;;;10.80;100.00;92476.31;5109191;28;20044;-72
2022/12/10 02:10:06;;;;;;;13.25;6.68;;;;;;;10.72;100.00;92461.25;5109595;28;20796;-72
2022/12/10 02:12:46;;;;;;;11.73;5.97;;;;;;;10.76;100.00;92464.91;5112187;28;20047;-72
2022/12/10 02:15:17;;;;;;;10.55;5.18;;;;;;;10.74;100.00;92464.38;5113192;28;20047;-72
2022/12/10 02:17:46;;;;;;;12.52;6.15;;;;;;;10.66;100.00;92443.16;5112777;28;20096;-72
2022/12/10 02:20:17;;;;;;;11.85;6.22;;;;;;;10.77;100.00;92461.34;5112863;28;20101;-72
2022/12/10 02:22:50;;;;;;;12.80;5.70;;;;;;;10.78;100.00;92460.34;5112980;28;20092;-72
2022/12/10 02:28:14;;;;;;;12.63;5.28;;;;;;;10.78;100.00;92452.63;5112575;28;20055;-72
2022/12/10 02:30:44;;;;;;;13.25;6.55;;;;;;;10.77;100.00;92446.72;5112354;28;20096;-72
2022/12/10 02:33:13;;;;;;;8.82;6.15;;;;;;;10.71;100.00;92437.34;5112730;28;20059;-72
2022/12/10 02:35:42;;;;;;;17.60;5.68;;;;;;;10.80;100.00;92446.25;5112561;28;20073;-71
2022/12/10 02:38:14;;;;;;;12.77;6.50;;;;;;;10.83;100.00;92438.09;5112478;28;20047;-71
2022/12/10 02:40:45;;;;;;;8.95;5.78;;;;;;;10.81;100.00;92447.03;5112710;28;20047;-71
2022/12/10 02:43:14;;;;;;;10.95;4.95;;;;;;;10.77;100.00;92449.28;5112172;28;20048;-71
2022/12/10 02:45:43;;;;;;;13.93;6.97;;;;;;;10.78;100.00;92455.97;5112619;28;20113;-71
2022/12/10 02:48:11;;;;;;;18.15;6.28;;;;;;;10.71;100.00;92446.84;5112472;28;20051;-71
2022/12/10 02:50:38;;;;;;;13.45;5.68;;;;;;;10.73;100.00;92449.97;5112311;28;20047;-71
2022/12/10 02:53:05;;;;;;;11.68;6.72;;;;;;;10.74;100.00;92443.81;5112280;28;20411;-72
2022/12/10 02:55:44;;;;;;;12.35;6.53;;;;;;;10.67;100.00;92433.69;5112436;28;20051;-71
2022/12/10 02:58:22;;;;;;;15.60;7.05;;;;;;;10.70;100.00;92435.81;5102643;28;20093;-72
2022/12/10 03:00:58;;;;;;;12.30;7.47;;;;;;;10.73;100.00;92442.28;5112249;28;20051;-72
2022/12/10 03:03:38;;;;;;;14.25;7.72;;;;;;;10.73;100.00;92442.28;5111900;28;20571;-72
2022/12/10 03:06:12;;;;;;;13.55;6.97;;;;;;;10.75;100.00;92450.50;5112168;28;20079;-72
2022/12/10 03:08:47;;;;;;;12.13;6.93;;;;;;;10.76;100.00;92447.72;5111679;28;20052;-72
2022/12/10 03:11:16;;;;;;;14.02;7.28;;;;;;;10.72;100.00;92438.91;5111781;28;20047;-72
2022/12/10 03:13:51;;;;;;;16.23;6.43;;;;;;;10.75;100.00;92446.16;5111723;28;20051;-72
2022/12/10 03:16:21;;;;;;;15.05;6.72;;;;;;;10.75;100.00;92446.16;5111571;28;20491;-72
2022/12/10 03:18:50;;;;;;;12.45;6.57;;;;;;;10.61;100.00;92412.28;5111828;28;20051;-72
2022/12/10 03:21:18;;;;;;;14.35;6.63;;;;;;;10.71;100.00;92428.84;5111924;28;20055;-72
2022/12/10 03:23:48;;;;;;;16.00;6.82;;;;;;;10.71;100.00;92418.59;5111565;28;20472;-71
2022/12/10 03:26:17;;;;;;;13.10;5.80;;;;;;;10.76;100.00;92413.53;5111350;28;20105;-71
2022/12/10 03:28:47;;;;;;;14.63;5.97;;;;;;;10.71;100.00;92408.31;5111563;28;20079;-72
2022/12/10 03:31:15;;;;;;;12.07;5.50;;;;;;;10.69;100.00;92408.53;5111260;28;20083;-72
2022/12/10 03:33:45;;;;;;;10.77;5.55;;;;;;;10.65;100.00;92403.09;5111660;28;20460;-72
2022/12/10 03:36:12;;;;;;;8.15;4.72;;;;;;;10.68;100.00;92401.84;5111309;28;20059;-72
2022/12/10 03:38:41;;;;;;;13.07;5.47;;;;;;;10.65;100.00;92399.75;5111426;28;20120;-72
2022/12/10 03:41:07;;;;;;;12.95;4.95;;;;;;;10.65;100.00;92403.09;5111349;28;20506;-72
2022/12/10 03:43:34;;;;;;;10.35;5.28;;;;;;;10.66;100.00;92407.19;5110999;28;20877;-71
2022/12/10 03:46:01;;;;;;;10.52;5.15;;;;;;;10.73;100.00;92404.50;5111374;28;20074;-72
2022/12/10 03:48:28;;;;;;;16.92;5.05;;;;;;;10.67;100.00;92406.22;5110995;28;20093;-71
2022/12/10 03:50:56;;;;;;;11.15;4.97;;;;;;;10.71;100.00;92405.75;5110985;28;20400;-71
2022/12/10 03:53:23;;;;;;;12.43;5.47;;;;;;;10.69;100.00;92405.97;5110842;28;20128;-72
2022/12/10 03:55:49;;;;;;;9.60;5.00;;;;;;;10.66;100.00;92399.50;5110867;28;20385;-72
2022/12/10 03:58:16;;;;;;;9.55;4.95;;;;;;;10.73;100.00;92408.88;5111032;28;20047;-72
2022/12/10 04:00:43;;;;;;;12.10;5.55;;;;;;;10.73;100.00;92396.03;5111129;28;20096;-72
2022/12/10 04:03:09;;;;;;;12.60;5.45;;;;;;;10.68;100.00;92402.63;5110937;28;20104;-73
2022/12/10 04:05:37;;;;;;;14.23;4.88;;;;;;;10.68;100.00;92402.63;5110881;28;20073;-72
2022/12/10 04:08:06;;;;;;;11.27;5.68;;;;;;;10.74;100.00;92408.63;5110755;28;20503;-72
2022/12/10 04:10:36;;;;;;;10.30;5.18;;;;;;;10.71;100.00;92405.75;5110532;28;20044;-73
2022/12/10 04:18:30;;;;;;;14.25;4.90;;;;;;;10.79;100.00;92426.69;5110576;28;20579;-72
2022/12/10 04:29:27;;;;;;;10.00;4.53;;;;;;;10.83;100.00;92452.72;5020691;28;20071;-71
2022/12/10 04:31:55;;;;;;;10.88;5.13;;;;;;;10.74;100.00;92431.75;5007594;28;20049;-72
2022/12/10 04:34:22;;;;;;;6.07;4.00;;;;;;;10.85;100.00;92457.63;5049237;28;20044;-72
2022/12/10 04:36:48;;;;;;;6.95;4.45;;;;;;;10.84;100.00;92462.00;5110147;28;20483;-72
2022/12/10 04:39:17;;;;;;;7.28;4.20;;;;;;;10.83;100.00;92453.50;5109962;28;20055;-72
2022/12/10 04:41:47;;;;;;;9.02;4.65;;;;;;;10.85;100.00;92453.28;5110925;28;20112;-72
2022/12/10 04:44:14;;;;;;;9.15;4.22;;;;;;;10.83;100.00;92445.78;5110060;28;20047;-72
2022/12/10 04:46:41;;;;;;;9.25;4.32;;;;;;;10.80;100.00;92451.38;5110443;28;20454;-72
2022/12/10 04:49:08;;;;;;;7.53;3.67;;;;;;;10.74;100.00;92446.41;5110194;28;20568;-72
2022/12/10 04:51:35;;;;;;;8.48;4.20;;;;;;;10.79;100.00;92451.63;5109682;28;20055;-72
2022/12/10 04:54:02;;;;;;;7.95;3.88;;;;;;;10.81;100.00;92450.38;5110001;28;20047;-73
2022/12/10 04:56:31;;;;;;;10.38;4.22;;;;;;;10.80;100.00;92437.78;5109632;28;20055;-72
2022/12/10 04:58:59;;;;;;;8.68;3.90;;;;;;;10.72;100.00;92428.63;5109576;28;20104;-72
2022/12/10 05:01:26;;;;;;;11.75;4.57;;;;;;;10.77;100.00;92435.66;5109999;28;20051;-72
2022/12/10 05:03:53;;;;;;;7.13;3.60;;;;;;;10.74;100.00;92421.47;5110051;28;20126;-72
2022/12/10 05:06:21;;;;;;;9.02;3.55;;;;;;;10.75;100.00;92417.91;5109810;28;20047;-72
2022/12/10 05:08:48;;;;;;;7.22;3.92;;;;;;;10.71;100.00;92423.72;5109749;28;20055;-72
2022/12/10 05:11:17;;;;;;;8.27;3.28;;;;;;;10.64;100.00;92422.06;5109663;28;20092;-72
2022/12/10 05:13:46;;;;;;;10.38;3.40;;;;;;;10.62;100.00;92413.03;5109953;28;20056;-72
2022/12/10 05:16:15;;;;;;;7.57;3.20;;;;;;;10.62;100.00;92411.25;5109537;28;20438;-72
2022/12/10 05:18:42;;;;;;;8.90;3.33;;;;;;;10.42;100.00;92383.41;5109922;28;20048;-72
2022/12/10 05:21:12;;;;;;;5.97;3.38;;;;;;;10.40;100.00;92385.41;5109524;28;20571;-72
2022/12/10 05:23:39;;;;;;;5.53;2.15;;;;;;;10.55;100.00;92402.91;5109811;28;20048;-73
2022/12/10 05:26:08;;;;;;;4.18;2.58;;;;;;;10.63;100.00;92414.59;5109998;28;20052;-72
2022/12/10 05:28:37;;;;;;;4.90;2.38;;;;;;;10.62;100.00;92418.97;5105230;28;20135;-72
2022/12/10 05:31:06;;;;;;;6.55;2.42;;;;;;;10.48;100.00;92399.69;5109272;28;20051;-72
2022/12/10 05:33:33;;;;;;;3.70;1.95;;;;;;;10.65;100.00;92417.72;5109885;28;20450;-72
2022/12/10 05:36:02;;;;;;;5.07;3.00;;;;;;;10.66;100.00;92414.16;5110125;28;20081;-72
2022/12/10 05:38:30;;;;;;;6.55;3.40;;;;;;;10.64;100.00;92419.50;5109575;28;20469;-72
2022/12/10 05:41:01;;;;;;;7.05;3.03;;;;;;;10.65;100.00;92421.06;5109392;28;20491;-72
2022/12/10 05:43:28;;;;;;;4.20;2.40;;;;;;;10.57;100.00;92418.88;5109612;28;20108;-72
2022/12/10 05:45:59;;;;;;;8.13;2.65;;;;;;;10.64;100.00;92429.78;5111485;28;20503;-72
2022/12/10 05:48:27;;;;;;;5.85;2.55;;;;;;;10.60;100.00;92426.09;5113373;28;20092;-72
2022/12/10 05:50:54;;;;;;;7.05;2.95;;;;;;;10.61;100.00;92426.91;5113266;28;20487;-72
2022/12/10 05:53:20;;;;;;;8.10;3.30;;;;;;;10.66;100.00;92425.19;5113539;28;20105;-72
2022/12/10 05:55:47;;;;;;;6.60;3.25;;;;;;;10.67;100.00;92429.34;5113876;28;20528;-71
2022/12/10 05:58:14;;;;;;;5.60;2.97;;;;;;;10.64;100.00;92429.78;5113367;28;20104;-71
2022/12/10 06:00:42;;;;;;;5.15;2.25;;;;;;;10.63;100.00;92430.78;5113431;28;20399;-71
2022/12/10 06:03:09;;;;;;;5.07;2.78;;;;;;;10.64;100.00;92432.34;5112839;28;20044;-71
2022/12/10 06:05:39;;;;;;;8.77;3.30;;;;;;;10.72;100.00;92427.84;5112893;28;20051;-71
2022/12/10 06:08:06;;;;;;;6.10;2.78;;;;;;;10.72;100.00;92432.97;5113028;28;20101;-72
2022/12/10 06:10:35;;;;;;;7.85;2.95;;;;;;;10.72;100.00;92436.34;5112968;28;20075;-72
2022/12/10 06:13:01;;;;;;;7.32;2.78;;;;;;;10.72;100.00;92435.56;5113015;28;20069;-71
2022/12/10 06:15:28;;;;;;;8.77;2.90;;;;;;;10.73;100.00;92445.59;5112916;28;20077;-71
2022/12/10 06:17:55;;;;;;;6.35;2.80;;;;;;;10.78;100.00;92432.09;5113053;28;20469;-71
2022/12/10 06:20:22;;;;;;;6.68;2.95;;;;;;;10.80;100.00;92435.19;5108034;28;20108;-72
2022/12/10 06:22:50;;;;;;;10.93;3.58;;;;;;;10.81;100.00;92436.75;5110883;28;20092;-72
2022/12/10 06:25:17;;;;;;;7.35;2.35;;;;;;;10.85;100.00;92432.72;5112819;28;20047;-71
2022/12/10 06:27:43;;;;;;;8.00;3.38;;;;;;;10.80;100.00;92414.66;5112869;28;20055;-71
2022/12/10 06:30:11;;;;;;;7.93;3.00;;;;;;;10.85;100.00;92422.44;5112797;28;20051;-72
2022/12/10 06:32:39;;;;;;;7.95;2.70;;;;;;;10.88;100.00;92431.47;5112371;28;20047;-71
2022/12/10 06:35:06;;;;;;;9.10;3.08;;;;;;;10.88;100.00;92442.53;5112713;28;20127;-71
2022/12/10 06:37:33;;;;;;;9.88;3.97;;;;;;;10.25;100.00;92355.88;5112594;27;20055;-71
2022/12/10 06:40:01;;;;;;;8.60;3.70;;;;;;;10.87;100.00;92448.69;5112500;28;20055;-72
2022/12/10 06:42:28;;;;;;;8.95;3.05;;;;;;;10.79;100.00;92431.06;5105925;28;20039;-71
2022/12/10 06:44:54;;;;;;;7.65;4.18;;;;;;;10.87;100.00;92455.63;5105209;28;20121;-71
2022/12/10 06:47:21;;;;;;;13.05;5.82;;;;;;;10.85;100.00;92460.97;5112079;28;20044;-72
2022/12/10 06:49:48;;;;;;;12.60;7.43;;;;;;;10.82;100.00;92458.84;5111649;28;20445;-71
2022/12/10 06:52:14;;;;;;;89.13;46.53;;;;;;;10.81;100.00;92450.38;5109431;28;20083;-72
2022/12/10 06:54:41;;;;;;;12.20;6.78;;;;;;;10.76;100.00;92455.44;5111972;28;20059;-71
2022/12/10 06:57:09;;;;;;;10.15;4.68;;;;;;;10.75;100.00;92458.22;5111570;28;20051;-72
2022/12/10 06:59:36;;;;;;;22.98;11.73;;;;;;;10.74;100.00;92459.25;5107585;28;20101;-72
2022/12/10 07:02:03;;;;;;;128.32;58.80;;;;;;;10.75;100.00;92455.66;5112107;28;20048;-71
2022/12/10 07:04:30;;;;;;;33.25;13.90;;;;;;;10.71;100.00;92447.63;5112254;28;20449;-71
2022/12/10 07:06:57;;;;;;;68.22;29.80;;;;;;;10.71;100.00;92441.69;5111965;28;20105;-71
2022/12/10 07:09:23;;;;;;;27.80;11.07;;;;;;;10.66;100.00;92430.31;5111729;28;20552;-71
2022/12/10 07:11:50;;;;;;;23.38;10.30;;;;;;;10.77;100.00;92440.78;5111968;28;20050;-71
2022/12/10 07:14:18;;;;;;;29.38;12.65;;;;;;;10.79;100.00;92429.28;5111462;28;20043;-71
2022/12/10 07:16:45;;;;;;;25.30;13.60;;;;;;;10.69;100.00;92414.47;5107851;28;20519;-71
2022/12/10 07:19:13;;;;;;;8.50;4.40;;;;;;;10.72;100.00;92428.63;5111486;28;20051;-71
2022/12/10 07:21:43;;;;;;;18.58;11.07;;;;;;;10.76;100.00;92424.59;5111563;28;20043;-71
2022/12/10 07:24:12;;;;;;;15.95;7.57;;;;;;;10.78;100.00;92409.72;5111347;28;20044;-71
2022/12/10 07:26:41;;;;;;;18.80;9.88;;;;;;;10.83;100.00;92427.00;5111223;28;20047;-71
2022/12/10 07:29:13;;;;;;;11.68;7.13;;;;;;;10.83;100.00;92412.38;5111727;28;20052;-71
2022/12/10 07:31:41;;;;;;;23.48;15.15;;;;;;;10.86;100.00;92418.06;5111038;28;20039;-72
2022/12/10 07:34:09;;;;;;;14.57;6.97;;;;;;;10.89;100.00;92425.34;5111610;28;20092;-71
2022/12/10 07:36:36;;;;;;;13.50;7.47;;;;;;;10.96;100.00;92429.31;5110951;28;20043;-72
2022/12/10 07:39:06;;;;;;;13.88;6.70;;;;;;;10.93;100.00;92432.34;5111168;28;20055;-71
2022/12/10 07:41:33;;;;;;;11.88;6.85;;;;;;;10.94;100.00;92417.72;5111306;28;20075;-72
2022/12/10 07:43:59;;;;;;;14.30;7.85;;;;;;;10.99;100.00;92428.09;5111056;28;20044;-72
2022/12/10 07:46:28;;;;;;;15.40;10.05;;;;;;;11.06;100.00;92422.81;5109567;28;20043;-71
2022/12/10 07:48:56;;;;;;;11.98;5.75;;;;;;;11.03;100.00;92429.19;5110733;28;20052;-72
2022/12/10 07:51:23;;;;;;;11.68;5.45;;;;;;;11.01;100.00;92433.75;5110778;28;20052;-71
2022/12/10 07:53:52;;;;;;;14.10;5.43;;;;;;;10.99;100.00;92422.16;5110741;28;20093;-72
2022/12/10 07:56:21;;;;;;;15.57;9.63;;;;;;;11.01;100.00;92417.56;5111227;28;20653;-72
2022/12/10 07:58:48;;;;;;;11.73;5.65;;;;;;;10.98;100.00;92408.53;5097267;28;20055;-72
2022/12/10 08:01:16;;;;;;;17.95;9.95;;;;;;;11.13;100.00;92418.28;5110766;28;20552;-72
2022/12/10 08:03:43;;;;;;;15.95;8.20;;;;;;;11.18;100.00;92418.38;5110715;28;20576;-72
2022/12/10 08:06:14;;;;;;;15.52;8.90;;;;;;;11.21;100.00;92415.31;5110790;28;20073;-72
2022/12/10 08:08:41;;;;;;;12.85;7.45;;;;;;;11.26;100.00;92409.50;5109758;28;20080;-72
2022/12/10 08:11:09;;;;;;;11.48;6.38;;;;;;;11.34;100.00;92411.66;5110749;28;20051;-72
2022/12/10 08:13:36;;;;;;;13.65;7.50;;;;;;;11.34;100.00;92409.09;5110266;28;20498;-72
2022/12/10 08:16:04;;;;;;;10.43;6.00;;;;;;;11.45;100.00;92411.81;5110864;28;20116;-71
2022/12/10 08:18:31;;;;;;;15.13;6.80;;;;;;;11.48;100.00;92401.84;5110308;28;20096;-71
2022/12/10 08:20:57;;;;;;;15.63;6.85;;;;;;;11.61;100.00;92393.03;5110335;28;20127;-71
2022/12/10 08:23:26;;;;;;;15.63;7.10;;;;;;;11.69;100.00;92389.28;5110655;28;20047;-72
2022/12/10 08:25:52;;;;;;;21.17;6.47;;;;;;;11.80;100.00;92387.63;5110584;28;20411;-72
2022/12/10 08:28:19;;;;;;;13.40;6.18;;;;;;;11.83;100.00;92379.44;5110381;28;20174;-72
2022/12/10 08:30:47;;;;;;;17.80;9.45;;;;;;;11.89;100.00;92369.97;5109992;28;20619;-71
2022/12/10 08:33:13;;;;;;;14.63;10.02;;;;;;;11.88;100.00;92368.41;5110176;28;20564;-72
2022/12/10 08:35:40;;;;;;;13.70;8.32;;;;;;;11.94;100.00;92370.03;5110350;27;20511;-72
2022/12/10 08:38:07;;;;;;;13.65;6.53;;;;;;;11.95;100.00;92379.31;5110194;28;20136;-71
2022/12/10 08:40:39;;;;;;;12.15;5.43;;;;;;;11.96;100.00;92378.31;5110314;28;20052;-72
2022/12/10 08:43:06;;;;;;;11.35;5.93;;;;;;;11.98;100.00;92383.19;5109978;28;20089;-71
2022/12/10 08:45:33;;;;;;;14.45;8.10;;;;;;;12.06;100.00;92380.25;5109585;28;20092;-71
2022/12/10 08:48:00;;;;;;;9.55;5.20;;;;;;;12.10;100.00;92383.91;5109836;28;20396;-71
2022/12/10 08:50:27;;;;;;;7.70;4.40;;;;;;;12.08;100.00;92373.06;5110171;28;20043;-71
2022/12/10 08:52:54;;;;;;;12.90;5.32;;;;;;;12.17;100.00;92376.00;5109915;28;20556;-71
2022/12/10 08:55:21;;;;;;;13.85;6.97;;;;;;;12.25;100.00;92369.66;5110032;28;20048;-71
2022/12/10 08:57:49;;;;;;;8.82;5.22;;;;;;;12.31;100.00;92367.94;5110279;28;20461;-71
2022/12/10 09:00:16;;;;;;;9.98;4.72;;;;;;;12.32;100.00;92357.38;5109568;28;20048;-72
2022/12/10 09:02:43;;;;;;;9.10;3.65;;;;;;;12.28;100.00;92346.00;5109794;28;20047;-72
2022/12/10 09:05:09;;;;;;;8.82;3.08;;;;;;;12.24;100.00;92352.66;5109624;28;20100;-71
2022/12/10 09:07:36;;;;;;;6.95;3.80;;;;;;;12.23;100.00;92354.44;5109941;28;20112;-72
2022/12/10 09:10:04;;;;;;;5.25;2.90;;;;;;;12.10;100.00;92340.16;5109995;28;20043;-71
2022/12/10 09:12:31;;;;;;;5.03;2.72;;;;;;;12.21;100.00;92346.19;5109804;28;20093;-71
2022/12/10 09:14:59;;;;;;;7.82;3.42;;;;;;;12.27;100.00;92347.03;5109950;28;20055;-71
2022/12/10 09:17:26;;;;;;;7.65;4.18;;;;;;;12.36;100.00;92348.13;5109929;28;20408;-71
2022/12/10 09:19:53;;;;;;;9.07;4.80;;;;;;;12.46;100.00;92344.91;5110340;28;20081;-71
2022/12/10 09:22:19;;;;;;;10.73;5.28;;;;;;;12.52;100.00;92325.91;5113740;28;20044;-71
2022/12/10 09:24:46;;;;;;;8.95;4.28;;;;;;;12.55;100.00;92304.81;5113837;28;20499;-71
2022/12/10 09:27:13;;;;;;;7.72;3.50;;;;;;;12.50;100.00;92304.00;5114057;28;20108;-71
2022/12/10 09:29:39;;;;;;;7.10;3.35;;;;;;;12.44;100.00;92285.13;5114005;28;20384;-71
2022/12/10 09:32:08;;;;;;;11.52;5.82;;;;;;;12.56;100.00;92295.28;5113793;28;20081;-71
2022/12/10 09:34:34;;;;;;;10.70;4.47;;;;;;;12.63;100.00;92277.06;5113555;28;20048;-71
2022/12/10 09:37:01;;;;;;;10.43;4.57;;;;;;;12.63;100.00;92264.94;5113960;28;20047;-71
2022/12/10 09:39:28;;;;;;;12.50;7.72;;;;;;;12.71;100.00;92271.44;5113505;28;20055;-71
2022/12/10 09:42:09;;;;;;;8.95;3.50;;;;;;;12.68;100.00;92264.97;5112822;28;20051;-71
2022/12/10 09:44:53;;;;;;;18.17;8.75;;;;;;;12.80;100.00;92274.34;5113646;28;20112;-72
2022/12/10 09:47:30;;;;;;;15.52;6.97;;;;;;;12.90;100.00;92273.63;5113594;28;20052;-71
2022/12/10 09:50:05;;;;;;;23.83;11.10;;;;;;;12.95;100.00;92271.09;5112929;28;20093;-71
2022/12/10 09:52:37;;;;;;;16.60;8.25;;;;;;;13.03;100.00;92273.22;5113490;28;20040;-71
2022/12/10 09:55:11;;;;;;;23.70;9.07;;;;;;;13.04;100.00;92266.25;5113240;28;20100;-71
2022/12/10 09:57:42;;;;;;;17.70;6.82;;;;;;;13.19;100.00;92268.19;5113448;28;20043;-71
2022/12/10 10:00:20;;;;;;;14.05;5.55;;;;;;;13.11;100.00;92269.41;5113453;28;20108;-71
2022/12/10 10:02:50;;;;;;;9.30;4.57;;;;;;;13.02;100.00;92274.25;5113289;28;20471;-71
2022/12/10 10:05:22;;;;;;;24.40;9.85;;;;;;;13.02;100.00;92271.69;5112872;28;20073;-71
2022/12/10 10:07:52;;;;;;;18.00;7.28;;;;;;;12.95;100.00;92255.63;5113342;28;20106;-71
2022/12/10 10:10:26;;;;;;;8.75;4.07;;;;;;;12.85;100.00;92264.06;5113245;28;20409;-71
2022/12/10 10:12:56;;;;;;;11.77;5.22;;;;;;;12.79;100.00;92271.00;5112885;28;20865;-71
2022/12/10 10:15:29;;;;;;;16.15;5.32;;;;;;;12.76;100.00;92265.53;5112302;28;20047;-71
2022/12/10 10:18:02;;;;;;;20.02;8.20;;;;;;;12.80;100.00;92272.56;5112822;28;20552;-71
2022/12/10 10:20:29;;;;;;;58.20;21.85;;;;;;;12.83;100.00;92263.56;5113150;28;20108;-71
2022/12/10 10:22:58;;;;;;;39.45;15.35;;;;;;;12.88;100.00;92261.03;5112268;28;20552;-71
2022/12/10 10:25:25;;;;;;;81.57;29.02;;;;;;;12.94;100.00;92266.97;5112392;28;20895;-71
2022/12/10 10:27:52;;;;;;;12.88;4.88;;;;;;;12.95;100.00;92263.38;5113116;28;20036;-71
2022/12/10 10:30:21;;;;;;;54.42;19.60;;;;;;;13.01;100.00;92271.91;5112868;28;20120;-71
2022/12/10 10:32:51;;;;;;;44.30;17.08;;;;;;;13.11;100.00;92264.25;5111872;28;20116;-72
2022/12/10 10:35:25;;;;;;;34.78;14.02;;;;;;;13.19;100.00;92261.19;5112686;28;20109;-71
2022/12/10 10:37:58;;;;;;;12.82;5.00;;;;;;;13.23;100.00;92266.63;5112208;28;20043;-71
2022/12/10 10:40:28;;;;;;;18.10;6.65;;;;;;;13.12;100.00;92246.97;5112790;28;20094;-71
2022/12/10 10:42:57;;;;;;;32.33;11.65;;;;;;;13.28;100.00;92260.75;5112268;28;20052;-72
2022/12/10 10:45:41;;;;;;;48.10;17.17;;;;;;;13.31;100.00;92263.59;5112063;28;20048;-71
2022/12/10 10:48:12;;;;;;;36.80;14.55;;;;;;;13.36;100.00;92266.22;5112057;28;20047;-72
2022/12/10 10:50:43;;;;;;;34.60;13.07;;;;;;;13.29;100.00;92263.06;5111829;28;20130;-71
2022/12/10 10:53:31;;;;;;;50.17;19.35;;;;;;;13.30;100.00;92256.91;5112169;28;20126;-71
2022/12/10 10:56:06;;;;;;;18.00;6.10;;;;;;;13.39;100.00;92269.31;5112214;27;20055;-71
2022/12/10 10:58:34;;;;;;;17.25;6.22;;;;;;;13.40;100.00;92266.47;5112437;28;20051;-71
2022/12/10 11:01:03;;;;;;;16.60;6.72;;;;;;;13.41;100.00;92252.56;5111917;28;20051;-71
2022/12/10 11:03:31;;;;;;;11.10;4.40;;;;;;;13.36;100.00;92239.63;5111959;28;20483;-71
2022/12/10 11:06:01;;;;;;;31.75;13.20;;;;;;;13.43;100.00;92229.84;5111755;28;20097;-72
2022/12/10 11:08:31;;;;;;;10.27;4.63;;;;;;;13.37;100.00;92230.84;5112333;28;20052;-72
2022/12/10 11:11:07;;;;;;;13.10;5.10;;;;;;;13.44;100.00;92225.47;5111870;28;20040;-72
2022/12/10 11:13:38;;;;;;;9.60;3.58;;;;;;;13.41;100.00;92215.66;5112090;28;20511;-71
2022/12/10 11:16:24;;;;;;;6.20;3.20;;;;;;;13.37;100.00;92205.06;5111636;28;20564;-71
2022/12/10 11:19:02;;;;;;;29.42;9.25;;;;;;;13.22;100.00;92187.72;5112214;28;20427;-72
2022/12/10 11:21:45;;;;;;;20.30;5.97;;;;;;;13.34;100.00;92192.69;5111055;28;20100;-71
2022/12/10 11:24:32;;;;;;;9.38;3.90;;;;;;;13.30;100.00;92186.47;5111673;28;20056;-71
2022/12/10 11:27:14;;;;;;;11.15;3.65;;;;;;;13.30;100.00;92196.78;5109187;28;20051;-71
2022/12/10 11:29:52;;;;;;;16.05;6.22;;;;;;;13.24;100.00;92180.50;5110122;28;20055;-71
2022/12/10 11:32:40;;;;;;;7.38;2.83;;;;;;;13.30;100.00;92199.38;5110361;28;20058;-71
2022/12/10 11:35:15;;;;;;;22.38;8.95;;;;;;;13.28;100.00;92188.53;5109075;28;20530;-71
2022/12/10 11:37:54;;;;;;;72.23;28.53;;;;;;;13.44;100.00;92200.47;5110557;28;20573;-71
2022/12/10 11:40:37;;;;;;;43.20;16.13;;;;;;;13.45;100.00;92198.66;5070486;28;20118;-71
2022/12/10 11:43:41;;;;;;;20.88;8.57;;;;;;;13.32;100.00;92187.00;5070289;28;20053;-71
2022/12/10 11:46:39;;;;;;;29.45;10.98;;;;;;;13.18;100.00;92182.28;5069928;28;20554;-71
2022/12/10 11:49:31;;;;;;;14.90;5.97;;;;;;;13.16;100.00;92183.56;5092580;27;1304254;-70